createdAt,value
2018-09-22T00:00:19.550Z,1014.03
2018-09-22T00:01:19.463Z,1014.06
2018-09-22T00:02:19.320Z,1014.12
2018-09-22T00:03:19.370Z,1014.07
2018-09-22T00:04:19.284Z,1014.09
2018-09-22T00:05:19.283Z,1014.09
2018-09-22T00:06:19.227Z,1014.08
2018-09-22T00:07:19.300Z,1014.18
2018-09-22T00:08:19.173Z,1014.19
2018-09-22T00:09:19.210Z,1014.14
2018-09-22T00:10:19.141Z,1014.18
2018-09-22T00:11:19.219Z,1014.13
2018-09-22T00:12:19.130Z,1014.21
2018-09-22T00:13:19.059Z,1014.26
2018-09-22T00:14:19.139Z,1014.29
2018-09-22T00:15:19.010Z,1014.32
2018-09-22T00:16:19.050Z,1014.29
2018-09-22T00:17:19.060Z,1014.31
2018-09-22T00:18:18.933Z,1014.41
2018-09-22T00:19:18.978Z,1014.34
2018-09-22T00:20:18.890Z,1014.43
2018-09-22T00:21:18.979Z,1014.43
2018-09-22T00:22:18.830Z,1014.39
2018-09-22T00:23:18.899Z,1014.43
2018-09-22T00:24:18.789Z,1014.43
2018-09-22T00:25:18.809Z,1014.40
2018-09-22T00:26:18.740Z,1014.52
2018-09-22T00:27:18.843Z,1014.42
2018-09-22T00:28:18.700Z,1014.50
2018-09-22T00:29:18.729Z,1014.55
2018-09-22T00:30:18.652Z,1014.53
2018-09-22T00:31:18.750Z,1014.57
2018-09-22T00:32:18.600Z,1014.59
2018-09-22T00:33:18.571Z,1014.58
2018-09-22T00:34:18.553Z,1014.60
2018-09-22T00:35:18.670Z,1014.63
2018-09-22T00:36:18.501Z,1014.55
2018-09-22T00:37:18.591Z,1014.58
2018-09-22T00:38:18.460Z,1014.55
2018-09-22T00:39:18.504Z,1014.58
2018-09-22T00:40:18.400Z,1014.59
2018-09-22T00:41:18.511Z,1014.59
2018-09-22T00:42:18.361Z,1014.56
2018-09-22T00:43:18.420Z,1014.58
2018-09-22T00:44:18.310Z,1014.64
2018-09-22T00:45:18.440Z,1014.68
2018-09-22T00:46:18.259Z,1014.67
2018-09-22T00:47:18.350Z,1014.64
2018-09-22T00:48:18.210Z,1014.67
2018-09-22T00:49:18.189Z,1014.70
2018-09-22T00:50:18.272Z,1014.71
2018-09-22T00:51:18.151Z,1014.68
2018-09-22T00:52:18.180Z,1014.73
2018-09-22T00:53:18.104Z,1014.67
2018-09-22T00:54:18.071Z,1014.67
2018-09-22T00:55:18.050Z,1014.70
2018-09-22T00:56:18.112Z,1014.65
2018-09-22T00:57:18.005Z,1014.70
2018-09-22T00:58:18.121Z,1014.71
2018-09-22T00:59:17.949Z,1014.69
2018-09-22T01:00:18.030Z,1014.66
2018-09-22T01:01:17.899Z,1014.63
2018-09-22T01:02:18.049Z,1014.69
2018-09-22T01:03:17.851Z,1014.69
2018-09-22T01:04:17.959Z,1014.68
2018-09-22T01:05:17.800Z,1014.73
2018-09-22T01:06:17.870Z,1014.67
2018-09-22T01:07:17.758Z,1014.71
2018-09-22T01:08:17.889Z,1014.77
2018-09-22T01:09:17.712Z,1014.88
2018-09-22T01:10:17.689Z,1014.83
2018-09-22T01:11:17.660Z,1014.80
2018-09-22T01:12:17.811Z,1014.85
2018-09-22T01:13:17.623Z,1014.85
2018-09-22T01:14:17.721Z,1014.89
2018-09-22T01:15:17.559Z,1014.82
2018-09-22T01:16:17.649Z,1014.90
2018-09-22T01:17:17.511Z,1014.85
2018-09-22T01:18:17.653Z,1014.91
2018-09-22T01:19:17.470Z,1014.88
2018-09-22T01:20:32.310Z,1014.94
2018-09-22T01:21:17.419Z,1015.00
2018-09-22T01:22:17.590Z,1014.90
2018-09-22T01:23:17.369Z,1014.93
2018-09-22T01:24:17.499Z,1014.90
2018-09-22T01:25:17.321Z,1014.96
2018-09-22T01:26:17.308Z,1015.04
2018-09-22T01:27:17.270Z,1015.04
2018-09-22T01:28:17.409Z,1015.02
2018-09-22T01:29:17.229Z,1015.04
2018-09-22T01:30:17.323Z,1015.05
2018-09-22T01:31:17.188Z,1015.08
2018-09-22T01:32:17.348Z,1015.02
2018-09-22T01:33:17.129Z,1015.07
2018-09-22T01:34:17.249Z,1015.03
2018-09-22T01:35:17.085Z,1015.06
2018-09-22T01:36:17.158Z,1015.10
2018-09-22T01:37:17.029Z,1015.10
2018-09-22T01:38:17.182Z,1015.07
2018-09-22T01:39:16.992Z,1015.16
2018-09-22T01:40:17.098Z,1015.19
2018-09-22T01:41:16.939Z,1015.21
2018-09-22T01:42:16.911Z,1015.23
2018-09-22T01:43:17.010Z,1015.16
2018-09-22T01:44:16.859Z,1015.10
2018-09-22T01:45:17.023Z,1015.14
2018-09-22T01:46:16.809Z,1015.17
2018-09-22T01:47:16.792Z,1015.12
2018-09-22T01:48:16.770Z,1015.14
2018-09-22T01:49:16.949Z,1015.15
2018-09-22T01:50:16.720Z,1015.20
2018-09-22T01:51:16.859Z,1015.25
2018-09-22T01:52:16.671Z,1015.23
2018-09-22T01:53:16.649Z,1015.27
2018-09-22T01:54:16.782Z,1015.28
2018-09-22T01:55:16.600Z,1015.26
2018-09-22T01:56:16.698Z,1015.34
2018-09-22T01:57:16.548Z,1015.26
2018-09-22T01:58:16.532Z,1015.27
2018-09-22T01:59:16.718Z,1015.25
2018-09-22T02:00:16.468Z,1015.25
2018-09-22T02:01:16.518Z,1015.22
2018-09-22T02:02:16.429Z,1015.24
2018-09-22T02:03:16.398Z,1015.28
2018-09-22T02:04:16.385Z,1015.26
2018-09-22T02:05:16.449Z,1015.27
2018-09-22T02:06:16.329Z,1015.26
2018-09-22T02:07:16.360Z,1015.27
2018-09-22T02:08:16.279Z,1015.33
2018-09-22T02:09:16.371Z,1015.33
2018-09-22T02:10:16.229Z,1015.37
2018-09-22T02:11:16.289Z,1015.38
2018-09-22T02:12:16.179Z,1015.42
2018-09-22T02:13:16.199Z,1015.35
2018-09-22T02:14:16.139Z,1015.35
2018-09-22T02:15:16.208Z,1015.48
2018-09-22T02:16:16.079Z,1015.50
2018-09-22T02:17:16.119Z,1015.44
2018-09-22T02:18:16.041Z,1015.43
2018-09-22T02:19:16.009Z,1015.42
2018-09-22T02:20:15.989Z,1015.46
2018-09-22T02:21:16.051Z,1015.48
2018-09-22T02:22:15.939Z,1015.59
2018-09-22T02:23:15.959Z,1015.59
2018-09-22T02:24:15.973Z,1015.58
2018-09-22T02:25:15.858Z,1015.52
2018-09-22T02:26:15.879Z,1015.57
2018-09-22T02:27:15.820Z,1015.53
2018-09-22T02:28:15.889Z,1015.59
2018-09-22T02:29:15.771Z,1015.57
2018-09-22T02:30:15.809Z,1015.58
2018-09-22T02:31:15.719Z,1015.53
2018-09-22T02:32:15.828Z,1015.62
2018-09-22T02:33:15.670Z,1015.59
2018-09-22T02:34:15.729Z,1015.53
2018-09-22T02:35:15.619Z,1015.58
2018-09-22T02:36:15.641Z,1015.70
2018-09-22T02:37:15.568Z,1015.56
2018-09-22T02:38:15.659Z,1015.49
2018-09-22T02:39:15.527Z,1015.53
2018-09-22T02:40:15.499Z,1015.55
2018-09-22T02:41:15.470Z,1015.39
2018-09-22T02:42:15.579Z,1015.38
2018-09-22T02:43:15.419Z,1015.40
2018-09-22T02:44:15.502Z,1015.45
2018-09-22T02:45:15.371Z,1015.46
2018-09-22T02:46:15.350Z,1015.54
2018-09-22T02:47:15.410Z,1015.47
2018-09-22T02:48:15.299Z,1015.38
2018-09-22T02:49:15.431Z,1015.47
2018-09-22T02:50:15.249Z,1015.46
2018-09-22T02:51:15.230Z,1015.47
2018-09-22T02:52:15.348Z,1015.49
2018-09-22T02:53:15.179Z,1015.55
2018-09-22T02:54:15.261Z,1015.56
2018-09-22T02:55:15.128Z,1015.58
2018-09-22T02:56:15.098Z,1015.55
2018-09-22T02:57:15.180Z,1015.49
2018-09-22T02:58:15.058Z,1015.52
2018-09-22T02:59:15.193Z,1015.55
2018-09-22T03:00:15.009Z,1015.61
2018-09-22T03:01:14.980Z,1015.58
2018-09-22T03:02:14.960Z,1015.54
2018-09-22T03:03:15.019Z,1015.53
2018-09-22T03:04:14.908Z,1015.61
2018-09-22T03:05:15.029Z,1015.56
2018-09-22T03:06:14.859Z,1015.55
2018-09-22T03:07:14.829Z,1015.48
2018-09-22T03:08:14.949Z,1015.51
2018-09-22T03:09:14.791Z,1015.48
2018-09-22T03:10:14.866Z,1015.43
2018-09-22T03:11:14.739Z,1015.38
2018-09-22T03:12:14.712Z,1015.47
2018-09-22T03:13:14.778Z,1015.58
2018-09-22T03:14:14.667Z,1015.63
2018-09-22T03:15:14.834Z,1015.74
2018-09-22T03:16:14.608Z,1015.69
2018-09-22T03:17:14.588Z,1015.67
2018-09-22T03:18:14.568Z,1015.68
2018-09-22T03:19:14.718Z,1015.67
2018-09-22T03:20:14.518Z,1015.71
2018-09-22T03:21:14.628Z,1015.75
2018-09-22T03:22:14.471Z,1015.77
2018-09-22T03:23:14.549Z,1015.82
2018-09-22T03:24:14.420Z,1015.82
2018-09-22T03:25:14.559Z,1015.80
2018-09-22T03:26:14.368Z,1015.80
2018-09-22T03:27:14.468Z,1015.82
2018-09-22T03:28:14.322Z,1015.77
2018-09-22T03:29:14.489Z,1015.66
2018-09-22T03:30:14.270Z,1015.66
2018-09-22T03:31:14.399Z,1015.69
2018-09-22T03:32:14.219Z,1015.78
2018-09-22T03:33:14.199Z,1015.75
2018-09-22T03:34:14.169Z,1015.78
2018-09-22T03:35:14.320Z,1015.79
2018-09-22T03:36:14.118Z,1015.76
2018-09-22T03:37:14.229Z,1015.90
2018-09-22T03:38:14.070Z,1015.81
2018-09-22T03:39:14.249Z,1015.79
2018-09-22T03:40:14.029Z,1015.79
2018-09-22T03:41:14.159Z,1015.82
2018-09-22T03:42:13.979Z,1015.77
2018-09-22T03:43:14.068Z,1015.79
2018-09-22T03:44:13.929Z,1015.81
2018-09-22T03:45:13.901Z,1015.79
2018-09-22T03:46:13.991Z,1015.84
2018-09-22T03:47:13.868Z,1015.82
2018-09-22T03:48:14.078Z,1015.78
2018-09-22T03:49:14.012Z,1015.73
2018-09-22T03:50:13.779Z,1015.77
2018-09-22T03:51:13.919Z,1015.81
2018-09-22T03:52:13.728Z,1015.82
2018-09-22T03:53:14.862Z,1015.77
2018-09-22T03:54:13.681Z,1015.77
2018-09-22T03:55:13.848Z,1015.75
2018-09-22T03:56:13.629Z,1015.77
2018-09-22T03:57:13.759Z,1015.83
2018-09-22T03:58:13.599Z,1015.87
2018-09-22T03:59:13.779Z,1015.87
2018-09-22T04:00:13.541Z,1015.93
2018-09-22T04:01:13.692Z,1015.89
2018-09-22T04:02:13.489Z,1015.94
2018-09-22T04:03:13.498Z,1015.96
2018-09-22T04:04:13.438Z,1015.98
2018-09-22T04:05:13.419Z,1015.92
2018-09-22T04:06:13.419Z,1015.97
2018-09-22T04:07:13.368Z,1016.03
2018-09-22T04:08:13.430Z,1015.98
2018-09-22T04:09:13.320Z,1016.04
2018-09-22T04:10:13.291Z,1016.04
2018-09-22T04:11:13.269Z,1016.11
2018-09-22T04:12:13.359Z,1016.09
2018-09-22T04:13:13.220Z,1016.04
2018-09-22T04:14:13.269Z,1016.06
2018-09-22T04:15:13.168Z,1016.06
2018-09-22T04:16:13.149Z,1016.00
2018-09-22T04:17:13.189Z,1016.07
2018-09-22T04:18:13.098Z,1016.13
2018-09-22T04:19:13.199Z,1016.12
2018-09-22T04:20:13.049Z,1016.19
2018-09-22T04:21:13.029Z,1016.18
2018-09-22T04:22:12.999Z,1016.12
2018-09-22T04:23:13.020Z,1016.07
2018-09-22T04:24:12.948Z,1016.08
2018-09-22T04:25:13.016Z,1016.12
2018-09-22T04:26:12.938Z,1016.20
2018-09-22T04:27:12.879Z,1016.28
2018-09-22T04:28:12.960Z,1016.29
2018-09-22T04:29:12.837Z,1016.24
2018-09-22T04:30:12.869Z,1016.25
2018-09-22T04:31:12.785Z,1016.24
2018-09-22T04:32:12.760Z,1016.21
2018-09-22T04:33:12.868Z,1016.18
2018-09-22T04:34:12.711Z,1016.19
2018-09-22T04:35:12.800Z,1016.20
2018-09-22T04:36:12.659Z,1016.22
2018-09-22T04:37:12.643Z,1016.27
2018-09-22T04:38:12.727Z,1016.30
2018-09-22T04:39:12.590Z,1016.25
2018-09-22T04:40:12.628Z,1016.25
2018-09-22T04:41:12.539Z,1016.28
2018-09-22T04:42:12.508Z,1016.34
2018-09-22T04:43:12.489Z,1016.31
2018-09-22T04:44:12.558Z,1016.34
2018-09-22T04:45:12.442Z,1016.33
2018-09-22T04:46:12.468Z,1016.32
2018-09-22T04:47:12.390Z,1016.31
2018-09-22T04:48:12.488Z,1016.26
2018-09-22T04:49:12.338Z,1016.29
2018-09-22T04:50:12.399Z,1016.35
2018-09-22T04:51:12.289Z,1016.36
2018-09-22T04:52:12.419Z,1016.38
2018-09-22T04:53:12.241Z,1016.42
2018-09-22T04:54:12.319Z,1016.43
2018-09-22T04:55:12.198Z,1016.43
2018-09-22T04:56:12.339Z,1016.36
2018-09-22T04:57:12.155Z,1016.35
2018-09-22T04:58:12.126Z,1016.37
2018-09-22T04:59:12.098Z,1016.37
2018-09-22T05:00:12.162Z,1016.36
2018-09-22T05:01:12.047Z,1016.37
2018-09-22T05:02:12.179Z,1016.39
2018-09-22T05:03:12.079Z,1016.43
2018-09-22T05:05:44.078Z,1016.39
2018-09-22T05:06:43.867Z,1016.40
2018-09-22T05:08:36.871Z,1016.47
2018-09-22T05:09:36.828Z,1016.49
2018-09-22T05:11:29.999Z,1016.53
2018-09-22T05:12:29.802Z,1016.55
2018-09-22T05:14:22.782Z,1016.57
2018-09-22T05:15:22.928Z,1016.52
2018-09-22T05:17:15.901Z,1016.51
2018-09-22T05:18:15.707Z,1016.57
2018-09-22T05:20:08.860Z,1016.63
2018-09-22T05:21:08.659Z,1016.62
2018-09-22T05:23:01.708Z,1016.60
2018-09-22T05:24:01.609Z,1016.64
2018-09-22T05:25:54.676Z,1016.64
2018-09-22T05:26:54.560Z,1016.69
2018-09-22T05:28:47.618Z,1016.74
2018-09-22T05:29:47.519Z,1016.70
2018-09-22T05:31:40.568Z,1016.76
2018-09-22T05:32:40.477Z,1016.77
2018-09-22T05:34:33.440Z,1016.81
2018-09-22T05:35:33.457Z,1016.82
2018-09-22T05:36:33.309Z,1016.80
2018-09-22T05:37:33.324Z,1016.79
2018-09-22T05:38:33.268Z,1016.80
2018-09-22T05:39:33.337Z,1016.79
2018-09-22T05:40:33.338Z,1016.79
2018-09-22T05:41:33.245Z,1016.80
2018-09-22T05:42:33.263Z,1016.80
2018-09-22T05:43:33.139Z,1016.76
2018-09-22T05:44:33.167Z,1016.77
2018-09-22T05:45:33.097Z,1016.79
2018-09-22T05:46:33.058Z,1016.83
2018-09-22T05:47:33.093Z,1016.79
2018-09-22T05:48:33.028Z,1016.85
2018-09-22T05:49:33.096Z,1016.84
2018-09-22T05:50:32.982Z,1016.84
2018-09-22T05:51:32.948Z,1016.89
2018-09-22T05:52:33.017Z,1016.88
2018-09-22T05:53:32.908Z,1016.91
2018-09-22T05:54:32.947Z,1016.90
2018-09-22T05:55:32.836Z,1016.90
2018-09-22T05:56:32.820Z,1016.98
2018-09-22T05:57:32.802Z,1016.96
2018-09-22T05:58:32.856Z,1017.00
2018-09-22T05:59:32.737Z,1016.98
2018-09-22T06:00:32.867Z,1016.92
2018-09-22T06:01:32.691Z,1016.90
2018-09-22T06:02:32.802Z,1016.89
2018-09-22T06:03:32.661Z,1016.92
2018-09-22T06:04:32.698Z,1016.89
2018-09-22T06:05:32.604Z,1016.94
2018-09-22T06:06:32.714Z,1016.90
2018-09-22T06:07:32.558Z,1016.98
2018-09-22T06:08:32.618Z,1016.98
2018-09-22T06:09:32.516Z,1017.00
2018-09-22T06:10:32.647Z,1017.04
2018-09-22T06:11:32.437Z,1017.03
2018-09-22T06:12:32.426Z,1017.00
2018-09-22T06:13:32.398Z,1016.94
2018-09-22T06:14:32.459Z,1016.98
2018-09-22T06:15:32.351Z,1016.94
2018-09-22T06:16:32.467Z,1017.00
2018-09-22T06:17:32.378Z,1017.01
2018-09-22T06:18:32.271Z,1016.95
2018-09-22T06:19:32.409Z,1016.91
2018-09-22T06:20:32.229Z,1016.87
2018-09-22T06:21:32.297Z,1016.80
2018-09-22T06:22:32.178Z,1016.75
2018-09-22T06:23:32.191Z,1016.68
2018-09-22T06:24:32.217Z,1016.68
2018-09-22T06:25:32.103Z,1016.73
2018-09-22T06:26:32.248Z,1016.81
2018-09-22T06:27:32.061Z,1016.89
2018-09-22T06:28:32.028Z,1016.89
2018-09-22T06:29:32.159Z,1016.87
2018-09-22T06:30:31.978Z,1016.81
2018-09-22T06:31:32.078Z,1016.84
2018-09-22T06:32:31.934Z,1016.84
2018-09-22T06:33:31.903Z,1016.82
2018-09-22T06:34:31.878Z,1016.77
2018-09-22T06:35:31.988Z,1016.82
2018-09-22T06:36:31.830Z,1016.79
2018-09-22T06:37:32.009Z,1016.83
2018-09-22T06:38:31.781Z,1016.84
2018-09-22T06:39:31.926Z,1016.82
2018-09-22T06:40:31.729Z,1016.85
2018-09-22T06:41:31.840Z,1016.80
2018-09-22T06:42:31.680Z,1016.87
2018-09-22T06:43:31.738Z,1016.87
2018-09-22T06:44:31.632Z,1016.82
2018-09-22T06:45:31.768Z,1016.85
2018-09-22T06:46:31.580Z,1016.84
2018-09-22T06:47:31.681Z,1016.90
2018-09-22T06:48:31.531Z,1016.91
2018-09-22T06:49:31.509Z,1017.02
2018-09-22T06:50:31.478Z,1016.98
2018-09-22T06:51:31.598Z,1017.03
2018-09-22T06:52:31.429Z,1016.99
2018-09-22T06:53:31.508Z,1017.02
2018-09-22T06:54:31.380Z,1016.89
2018-09-22T06:55:31.518Z,1016.90
2018-09-22T06:56:31.341Z,1016.90
2018-09-22T06:57:31.437Z,1016.91
2018-09-22T06:58:31.288Z,1017.03
2018-09-22T06:59:31.363Z,1016.99
2018-09-22T07:00:31.238Z,1017.06
2018-09-22T07:01:31.359Z,1017.10
2018-09-22T07:02:31.190Z,1017.12
2018-09-22T07:03:31.277Z,1017.13
2018-09-22T07:04:31.140Z,1017.09
2018-09-22T07:05:31.109Z,1017.13
2018-09-22T07:06:31.201Z,1017.07
2018-09-22T07:07:31.199Z,1016.99
2018-09-22T07:08:31.038Z,1017.07
2018-09-22T07:09:31.219Z,1017.08
2018-09-22T07:10:30.989Z,1017.05
2018-09-22T07:11:31.128Z,1017.06
2018-09-22T07:12:30.958Z,1017.15
2018-09-22T07:13:31.040Z,1017.13
2018-09-22T07:14:30.895Z,1017.15
2018-09-22T07:15:31.038Z,1017.07
2018-09-22T07:16:30.848Z,1017.09
2018-09-22T07:17:30.962Z,1017.10
2018-09-22T07:18:30.832Z,1017.10
2018-09-22T07:19:31.047Z,1017.13
2018-09-22T07:20:30.751Z,1017.15
2018-09-22T07:21:30.718Z,1017.15
2018-09-22T07:22:30.698Z,1017.20
2018-09-22T07:23:30.799Z,1017.16
2018-09-22T07:24:30.649Z,1017.16
2018-09-22T07:25:30.742Z,1017.19
2018-09-22T07:26:30.718Z,1017.20
2018-09-22T07:27:30.581Z,1017.23
2018-09-22T07:28:30.628Z,1017.31
2018-09-22T07:29:30.529Z,1017.34
2018-09-22T07:30:30.538Z,1017.33
2018-09-22T07:31:30.482Z,1017.40
2018-09-22T07:32:30.548Z,1017.40
2018-09-22T07:33:30.436Z,1017.36
2018-09-22T07:34:30.477Z,1017.37
2018-09-22T07:35:30.387Z,1017.40
2018-09-22T07:36:30.487Z,1017.29
2018-09-22T07:37:30.344Z,1017.27
2018-09-22T07:38:30.447Z,1017.26
2018-09-22T07:39:30.372Z,1017.27
2018-09-22T07:40:30.308Z,1017.31
2018-09-22T07:41:30.239Z,1017.28
2018-09-22T07:42:30.218Z,1017.26
2018-09-22T07:43:30.193Z,1017.24
2018-09-22T07:44:30.238Z,1017.22
2018-09-22T07:45:30.144Z,1017.22
2018-09-22T07:46:30.248Z,1017.24
2018-09-22T07:47:30.158Z,1017.24
2018-09-22T07:48:30.072Z,1017.27
2018-09-22T07:49:30.060Z,1017.26
2018-09-22T07:50:30.028Z,1017.19
2018-09-22T07:51:30.078Z,1017.24
2018-09-22T07:52:29.987Z,1017.12
2018-09-22T07:53:29.948Z,1017.16
2018-09-22T07:54:30.001Z,1017.30
2018-09-22T07:55:29.902Z,1017.37
2018-09-22T07:56:29.911Z,1017.37
2018-09-22T07:57:29.862Z,1017.36
2018-09-22T07:58:29.829Z,1017.35
2018-09-22T07:59:29.828Z,1017.35
2018-09-22T08:00:29.875Z,1017.29
2018-09-22T08:01:29.841Z,1017.33
2018-09-22T08:02:29.748Z,1017.30
2018-09-22T08:03:29.709Z,1017.40
2018-09-22T08:04:29.692Z,1017.47
2018-09-22T08:05:29.769Z,1017.42
2018-09-22T08:06:29.640Z,1017.45
2018-09-22T08:07:29.678Z,1017.48
2018-09-22T08:08:29.602Z,1017.49
2018-09-22T08:09:29.572Z,1017.58
2018-09-22T08:10:29.599Z,1017.58
2018-09-22T08:11:29.573Z,1017.61
2018-09-22T08:12:29.621Z,1017.63
2018-09-22T08:13:29.484Z,1017.65
2018-09-22T08:14:29.449Z,1017.64
2018-09-22T08:15:29.531Z,1017.60
2018-09-22T08:16:29.408Z,1017.58
2018-09-22T08:17:30.470Z,1017.57
2018-09-22T08:18:29.361Z,1017.47
2018-09-22T08:19:29.339Z,1017.43
2018-09-22T08:20:29.312Z,1017.38
2018-09-22T08:21:29.368Z,1017.36
2018-09-22T08:22:29.258Z,1017.32
2018-09-22T08:23:29.279Z,1017.31
2018-09-22T08:24:29.232Z,1017.34
2018-09-22T08:25:29.299Z,1017.40
2018-09-22T08:26:29.170Z,1017.41
2018-09-22T08:27:29.207Z,1017.37
2018-09-22T08:28:29.127Z,1017.37
2018-09-22T08:29:29.119Z,1017.40
2018-09-22T08:30:29.068Z,1017.40
2018-09-22T08:31:29.129Z,1017.39
2018-09-22T08:32:29.029Z,1017.36
2018-09-22T08:33:29.039Z,1017.39
2018-09-22T08:34:28.985Z,1017.43
2018-09-22T08:35:28.958Z,1017.52
2018-09-22T08:36:29.111Z,1017.48
2018-09-22T08:37:28.979Z,1017.59
2018-09-22T08:38:28.901Z,1017.52
2018-09-22T08:39:28.886Z,1017.58
2018-09-22T08:40:28.888Z,1017.53
2018-09-22T08:41:28.815Z,1017.50
2018-09-22T08:42:28.916Z,1017.48
2018-09-22T08:43:28.771Z,1017.39
2018-09-22T08:44:28.820Z,1017.35
2018-09-22T08:45:28.738Z,1017.34
2018-09-22T08:46:28.709Z,1017.46
2018-09-22T08:47:28.748Z,1017.45
2018-09-22T08:48:28.654Z,1017.46
2018-09-22T08:49:28.729Z,1017.43
2018-09-22T08:50:28.598Z,1017.38
2018-09-22T08:51:28.580Z,1017.27
2018-09-22T08:52:28.559Z,1017.37
2018-09-22T08:53:28.576Z,1017.35
2018-09-22T08:54:28.511Z,1017.27
2018-09-22T08:55:28.589Z,1017.22
2018-09-22T08:56:28.489Z,1017.24
2018-09-22T08:57:28.457Z,1017.31
2018-09-22T08:58:28.511Z,1017.40
2018-09-22T08:59:28.398Z,1017.42
2018-09-22T09:00:28.473Z,1017.52
2018-09-22T09:01:28.352Z,1017.51
2018-09-22T09:02:28.438Z,1017.64
2018-09-22T09:03:28.311Z,1017.56
2018-09-22T09:04:28.346Z,1017.72
2018-09-22T09:05:28.259Z,1017.62
2018-09-22T09:06:28.250Z,1017.71
2018-09-22T09:07:28.209Z,1017.77
2018-09-22T09:08:28.268Z,1017.74
2018-09-22T09:09:28.170Z,1017.74
2018-09-22T09:10:28.179Z,1017.70
2018-09-22T09:11:28.157Z,1017.70
2018-09-22T09:12:28.099Z,1017.74
2018-09-22T09:13:28.107Z,1017.83
2018-09-22T09:14:28.141Z,1017.80
2018-09-22T09:15:28.036Z,1018.05
2018-09-22T09:16:28.119Z,1018.03
2018-09-22T09:17:27.989Z,1017.98
2018-09-22T09:18:27.977Z,1018.03
2018-09-22T09:19:28.040Z,1017.92
2018-09-22T09:20:27.927Z,1017.96
2018-09-22T09:21:27.949Z,1017.76
2018-09-22T09:22:27.889Z,1017.66
2018-09-22T09:23:27.849Z,1017.56
2018-09-22T09:24:27.830Z,1017.51
2018-09-22T09:25:27.893Z,1017.56
2018-09-22T09:26:27.804Z,1017.45
2018-09-22T09:27:27.846Z,1017.51
2018-09-22T09:28:27.749Z,1017.42
2018-09-22T09:29:27.719Z,1017.42
2018-09-22T09:30:27.809Z,1017.41
2018-09-22T09:31:27.688Z,1017.54
2018-09-22T09:32:27.719Z,1017.53
2018-09-22T09:33:27.639Z,1017.54
2018-09-22T09:34:27.618Z,1017.48
2018-09-22T09:35:27.602Z,1017.46
2018-09-22T09:36:27.650Z,1017.42
2018-09-22T09:37:27.568Z,1017.39
2018-09-22T09:38:27.558Z,1017.37
2018-09-22T09:39:27.568Z,1017.24
2018-09-22T09:40:27.495Z,1017.16
2018-09-22T09:41:27.579Z,1017.26
2018-09-22T09:42:27.449Z,1017.26
2018-09-22T09:43:27.580Z,1017.24
2018-09-22T09:44:27.406Z,1017.14
2018-09-22T09:45:27.399Z,1017.17
2018-09-22T09:46:27.357Z,1017.08
2018-09-22T09:47:27.418Z,1017.07
2018-09-22T09:48:27.319Z,1017.16
2018-09-22T09:49:27.328Z,1017.21
2018-09-22T09:50:27.278Z,1017.22
2018-09-22T09:51:27.264Z,1017.28
2018-09-22T09:52:27.248Z,1017.40
2018-09-22T09:53:27.208Z,1017.44
2018-09-22T09:54:27.295Z,1017.44
2018-09-22T09:55:27.268Z,1017.40
2018-09-22T09:56:27.148Z,1017.29
2018-09-22T09:57:27.179Z,1017.36
2018-09-22T09:58:27.108Z,1017.43
2018-09-22T09:59:27.198Z,1017.37
2018-09-22T10:00:27.098Z,1017.57
2018-09-22T10:01:27.039Z,1017.49
2018-09-22T10:02:27.118Z,1017.49
2018-09-22T10:03:26.998Z,1017.43
2018-09-22T10:04:27.085Z,1017.27
2018-09-22T10:05:26.958Z,1017.24
2018-09-22T10:06:27.040Z,1017.38
2018-09-22T10:07:26.918Z,1017.59
2018-09-22T10:08:26.948Z,1017.52
2018-09-22T10:09:26.868Z,1017.47
2018-09-22T10:10:26.868Z,1017.49
2018-09-22T10:11:26.840Z,1017.31
2018-09-22T10:12:26.882Z,1017.11
2018-09-22T10:13:26.798Z,1017.12
2018-09-22T10:14:26.795Z,1017.18
2018-09-22T10:15:26.747Z,1017.19
2018-09-22T10:16:26.728Z,1017.09
2018-09-22T10:17:26.707Z,1017.19
2018-09-22T10:18:26.724Z,1017.00
2018-09-22T10:19:26.661Z,1017.00
2018-09-22T10:20:26.727Z,1016.89
2018-09-22T10:21:26.619Z,1016.94
2018-09-22T10:22:26.641Z,1016.93
2018-09-22T10:23:26.577Z,1016.99
2018-09-22T10:24:26.658Z,1017.01
2018-09-22T10:25:26.538Z,1016.90
2018-09-22T10:26:26.568Z,1016.86
2018-09-22T10:27:26.497Z,1016.81
2018-09-22T10:28:26.596Z,1016.88
2018-09-22T10:29:26.449Z,1016.82
2018-09-22T10:30:26.488Z,1016.82
2018-09-22T10:31:26.414Z,1016.89
2018-09-22T10:32:26.388Z,1016.87
2018-09-22T10:33:26.407Z,1016.86
2018-09-22T10:34:26.351Z,1016.84
2018-09-22T10:35:26.428Z,1016.89
2018-09-22T10:36:26.317Z,1016.85
2018-09-22T10:37:26.288Z,1016.80
2018-09-22T10:38:26.258Z,1016.88
2018-09-22T10:39:26.347Z,1016.85
2018-09-22T10:40:26.217Z,1016.77
2018-09-22T10:41:26.258Z,1016.78
2018-09-22T10:42:26.180Z,1016.76
2018-09-22T10:43:26.181Z,1016.80
2018-09-22T10:44:26.148Z,1016.76
2018-09-22T10:45:26.189Z,1016.73
2018-09-22T10:46:26.122Z,1016.68
2018-09-22T10:47:26.103Z,1016.72
2018-09-22T10:48:26.094Z,1016.67
2018-09-22T10:49:26.128Z,1016.72
2018-09-22T10:50:26.008Z,1016.64
2018-09-22T10:51:26.028Z,1016.79
2018-09-22T10:52:26.000Z,1016.70
2018-09-22T10:53:25.952Z,1016.71
2018-09-22T10:54:25.951Z,1016.66
2018-09-22T10:55:25.914Z,1016.67
2018-09-22T10:56:25.959Z,1016.68
2018-09-22T10:57:25.859Z,1016.62
2018-09-22T10:58:25.842Z,1016.62
2018-09-22T10:59:25.819Z,1016.65
2018-09-22T11:00:25.889Z,1016.61
2018-09-22T11:01:25.778Z,1016.68
2018-09-22T11:02:25.798Z,1016.68
2018-09-22T11:03:25.753Z,1016.69
2018-09-22T11:04:25.815Z,1016.62
2018-09-22T11:05:25.688Z,1016.66
2018-09-22T11:06:26.761Z,1016.64
2018-09-22T11:07:25.649Z,1016.65
2018-09-22T11:08:25.739Z,1016.80
2018-09-22T11:09:25.599Z,1016.70
2018-09-22T11:10:25.653Z,1016.78
2018-09-22T11:11:25.616Z,1016.75
2018-09-22T11:12:25.562Z,1016.82
2018-09-22T11:13:25.519Z,1016.78
2018-09-22T11:14:25.506Z,1016.80
2018-09-22T11:15:25.485Z,1016.88
2018-09-22T11:16:25.497Z,1016.93
2018-09-22T11:17:25.451Z,1016.82
2018-09-22T11:18:25.500Z,1016.95
2018-09-22T11:19:25.387Z,1016.90
2018-09-22T11:20:25.420Z,1016.81
2018-09-22T11:21:25.357Z,1016.85
2018-09-22T11:22:25.438Z,1016.80
2018-09-22T11:23:25.298Z,1016.71
2018-09-22T11:24:25.339Z,1016.80
2018-09-22T11:25:25.276Z,1016.75
2018-09-22T11:26:25.258Z,1016.74
2018-09-22T11:27:25.220Z,1016.64
2018-09-22T11:28:25.273Z,1016.57
2018-09-22T11:29:25.183Z,1016.62
2018-09-22T11:30:25.168Z,1016.53
2018-09-22T11:31:25.138Z,1016.64
2018-09-22T11:32:25.189Z,1016.58
2018-09-22T11:33:25.099Z,1016.62
2018-09-22T11:34:25.109Z,1016.58
2018-09-22T11:35:25.109Z,1016.57
2018-09-22T11:36:25.029Z,1016.60
2018-09-22T11:37:25.027Z,1016.64
2018-09-22T11:38:25.011Z,1016.58
2018-09-22T11:39:25.044Z,1016.60
2018-09-22T11:40:24.941Z,1016.59
2018-09-22T11:41:24.948Z,1016.61
2018-09-22T11:42:24.909Z,1016.71
2018-09-22T11:43:24.971Z,1016.66
2018-09-22T11:44:24.853Z,1016.70
2018-09-22T11:45:24.882Z,1016.63
2018-09-22T11:46:24.809Z,1016.65
2018-09-22T11:47:24.890Z,1016.65
2018-09-22T11:48:24.776Z,1016.64
2018-09-22T11:49:24.799Z,1016.62
2018-09-22T11:50:24.717Z,1016.58
2018-09-22T11:51:24.705Z,1016.54
2018-09-22T11:52:24.718Z,1016.50
2018-09-22T11:53:24.658Z,1016.54
2018-09-22T11:54:24.739Z,1016.50
2018-09-22T11:55:24.609Z,1016.50
2018-09-22T11:56:24.633Z,1016.45
2018-09-22T11:57:24.573Z,1016.46
2018-09-22T11:58:24.563Z,1016.44
2018-09-22T11:59:24.519Z,1016.40
2018-09-22T12:00:24.579Z,1016.37
2018-09-22T12:01:24.482Z,1016.38
2018-09-22T12:02:24.489Z,1016.40
2018-09-22T12:03:24.439Z,1016.35
2018-09-22T12:04:24.499Z,1016.37
2018-09-22T12:05:24.398Z,1016.42
2018-09-22T12:06:24.455Z,1016.43
2018-09-22T12:07:24.349Z,1016.44
2018-09-22T12:08:24.428Z,1016.44
2018-09-22T12:09:24.301Z,1016.41
2018-09-22T12:10:24.338Z,1016.41
2018-09-22T12:11:24.259Z,1016.36
2018-09-22T12:12:24.242Z,1016.42
2018-09-22T12:13:24.219Z,1016.39
2018-09-22T12:14:24.212Z,1016.38
2018-09-22T12:15:24.276Z,1016.38